createdAt,value
2022-08-26T00:01:56.396Z,100702.77
2022-08-26T00:04:26.267Z,100700.16
2022-08-26T00:06:55.531Z,100700.07
2022-08-26T00:09:24.647Z,100699.56
2022-08-26T00:11:52.078Z,100701.59
2022-08-26T00:14:19.351Z,100704.31
2022-08-26T00:16:47.887Z,100702.88
2022-08-26T00:19:15.050Z,100702.08
2022-08-26T00:21:41.966Z,100703.89
2022-08-26T00:24:13.203Z,100701.69
2022-08-26T00:26:41.345Z,100702.99
2022-08-26T00:29:08.395Z,100704.33
2022-08-26T00:31:36.508Z,100708.05
2022-08-26T00:34:04.396Z,100705.42
2022-08-26T00:36:32.524Z,100705.55
2022-08-26T00:38:59.491Z,100704.90
2022-08-26T00:41:26.663Z,100701.23
2022-08-26T00:43:54.602Z,100696.79
2022-08-26T00:46:29.187Z,100695.74
2022-08-26T00:49:02.980Z,100696.14
2022-08-26T00:51:34.230Z,100693.63
2022-08-26T00:54:06.036Z,100692.20
2022-08-26T00:56:57.658Z,100687.06
2022-08-26T00:59:29.138Z,100688.11
2022-08-26T01:02:00.466Z,100688.31
2022-08-26T01:04:31.385Z,100687.33
2022-08-26T01:06:58.871Z,100687.09
2022-08-26T01:09:26.102Z,100689.15
2022-08-26T01:11:55.886Z,100690.61
2022-08-26T01:14:26.798Z,100693.63
2022-08-26T01:16:54.469Z,100694.48
2022-08-26T01:19:33.232Z,100693.83
2022-08-26T01:22:05.455Z,100691.59
2022-08-26T01:24:32.485Z,100689.33
2022-08-26T01:27:05.235Z,100687.14
2022-08-26T01:29:34.112Z,100683.07
2022-08-26T01:32:02.824Z,100689.75
2022-08-26T01:34:36.081Z,100688.44
2022-08-26T01:37:16.045Z,100687.00
2022-08-26T01:39:47.049Z,100687.46
2022-08-26T01:42:16.367Z,100687.60
2022-08-26T01:44:51.425Z,100687.31
2022-08-26T01:47:20.384Z,100686.80
2022-08-26T01:49:50.795Z,100685.48
2022-08-26T01:52:24.115Z,100684.74
2022-08-26T01:54:57.205Z,100683.95
2022-08-26T01:57:24.897Z,100683.09
2022-08-26T01:59:54.611Z,100681.94
2022-08-26T02:02:23.038Z,100683.38
2022-08-26T02:04:57.344Z,100683.79
2022-08-26T02:07:26.854Z,100687.96
2022-08-26T02:09:54.757Z,100688.65
2022-08-26T02:12:21.918Z,100691.39
2022-08-26T02:14:53.283Z,100687.73
2022-08-26T02:17:25.551Z,100686.31
2022-08-26T02:19:53.107Z,100681.23
2022-08-26T02:22:22.590Z,100679.58
2022-08-26T02:24:57.973Z,100678.06
2022-08-26T02:27:36.247Z,100678.52
2022-08-26T02:30:31.925Z,100676.33
2022-08-26T02:33:01.466Z,100675.70
2022-08-26T02:35:28.795Z,100672.69
2022-08-26T02:37:57.512Z,100669.48
2022-08-26T02:40:30.565Z,100669.85
2022-08-26T02:42:58.442Z,100666.68
2022-08-26T02:45:28.942Z,100665.21
2022-08-26T02:47:58.655Z,100664.34
2022-08-26T02:50:27.162Z,100669.54
2022-08-26T02:52:54.277Z,100662.90
2022-08-26T02:55:21.448Z,100664.70
2022-08-26T02:57:52.404Z,100667.85
2022-08-26T03:00:19.800Z,100663.71
2022-08-26T03:02:46.712Z,100659.53
2022-08-26T03:05:13.498Z,100654.95
2022-08-26T03:07:41.902Z,100656.77
2022-08-26T03:10:09.551Z,100648.97
2022-08-26T03:12:37.003Z,100649.41
2022-08-26T03:15:17.569Z,100651.20
2022-08-26T03:17:47.179Z,100648.85
2022-08-26T03:20:15.765Z,100649.84
2022-08-26T03:22:45.237Z,100649.69
2022-08-26T03:25:15.167Z,100648.61
2022-08-26T03:27:43.082Z,100648.48
2022-08-26T03:30:30.386Z,100651.58
2022-08-26T03:32:57.649Z,100651.19
2022-08-26T03:35:25.733Z,100649.61
2022-08-26T03:37:53.306Z,100643.77
2022-08-26T03:40:20.896Z,100643.86
2022-08-26T03:42:49.706Z,100643.53
2022-08-26T03:45:18.100Z,100642.64
2022-08-26T03:47:46.042Z,100639.66
2022-08-26T03:50:15.715Z,100640.84
2022-08-26T03:52:44.147Z,100639.74
2022-08-26T03:55:11.713Z,100639.86
2022-08-26T03:57:38.550Z,100639.68
2022-08-26T04:00:08.804Z,100638.69
2022-08-26T04:02:35.932Z,100637.85
2022-08-26T04:05:03.256Z,100634.81
2022-08-26T04:07:32.058Z,100639.00
2022-08-26T04:10:00.285Z,100638.02
2022-08-26T04:12:30.153Z,100635.42
2022-08-26T04:14:57.194Z,100628.98
2022-08-26T04:17:26.173Z,100632.11
2022-08-26T04:19:54.063Z,100632.53
2022-08-26T04:22:24.075Z,100631.77
2022-08-26T04:24:52.603Z,100637.40
2022-08-26T04:27:19.899Z,100642.49
2022-08-26T04:29:47.974Z,100642.55
2022-08-26T04:32:16.488Z,100642.05
2022-08-26T04:34:45.015Z,100647.60
2022-08-26T04:37:13.134Z,100645.95
2022-08-26T04:39:40.825Z,100644.73
2022-08-26T04:42:07.906Z,100638.45
2022-08-26T04:44:37.216Z,100637.23
2022-08-26T04:47:04.703Z,100637.38
2022-08-26T04:49:35.461Z,100635.49
2022-08-26T04:52:06.138Z,100638.23
2022-08-26T04:54:34.935Z,100634.19
2022-08-26T04:57:02.600Z,100630.86
2022-08-26T04:59:29.720Z,100632.20
2022-08-26T05:01:57.245Z,100639.48
2022-08-26T05:04:24.380Z,100641.83
2022-08-26T05:06:55.670Z,100639.30
2022-08-26T05:09:25.379Z,100644.04
2022-08-26T05:11:52.515Z,100641.11
2022-08-26T05:14:22.175Z,100634.02
2022-08-26T05:16:49.498Z,100634.80
2022-08-26T05:19:18.728Z,100632.59
2022-08-26T05:21:47.690Z,100630.13
2022-08-26T05:24:14.994Z,100631.60
2022-08-26T05:26:42.149Z,100622.94
2022-08-26T05:29:12.097Z,100625.63
2022-08-26T05:31:38.885Z,100627.27
2022-08-26T05:34:07.041Z,100631.53
2022-08-26T05:36:36.972Z,100631.46
2022-08-26T05:39:06.714Z,100627.84
2022-08-26T05:41:38.615Z,100627.04
2022-08-26T05:44:08.836Z,100629.29
2022-08-26T05:46:36.688Z,100628.04
2022-08-26T05:49:04.865Z,100636.97
2022-08-26T05:51:33.290Z,100642.21
2022-08-26T05:54:02.049Z,100637.38
2022-08-26T05:56:31.084Z,100636.40
2022-08-26T05:58:59.753Z,100640.71
2022-08-26T06:01:30.238Z,100643.98
2022-08-26T06:04:00.718Z,100644.37
2022-08-26T06:06:33.452Z,100647.34
2022-08-26T06:09:02.856Z,100650.30
2022-08-26T06:11:32.392Z,100655.38
2022-08-26T06:14:03.492Z,100648.98
2022-08-26T06:16:31.170Z,100651.92
2022-08-26T06:18:58.264Z,100651.83
2022-08-26T06:21:28.222Z,100650.60
2022-08-26T06:24:19.720Z,100648.98
2022-08-26T06:26:53.974Z,100656.88
2022-08-26T06:29:24.902Z,100655.27
2022-08-26T06:31:56.341Z,100654.50
2022-08-26T06:34:29.921Z,100651.46
2022-08-26T06:37:01.863Z,100658.68
2022-08-26T06:39:30.595Z,100661.64
2022-08-26T06:41:58.895Z,100660.72
2022-08-26T06:44:26.900Z,100664.31
2022-08-26T06:46:54.147Z,100660.79
2022-08-26T06:49:26.702Z,100657.70
2022-08-26T06:51:54.737Z,100657.70
2022-08-26T06:54:22.326Z,100657.19
2022-08-26T06:56:50.962Z,100666.58
2022-08-26T06:59:18.014Z,100669.97
2022-08-26T07:01:45.134Z,100669.70
2022-08-26T07:04:21.912Z,100663.09
2022-08-26T07:06:52.936Z,100660.96
2022-08-26T07:09:22.789Z,100657.13
2022-08-26T07:11:51.558Z,100656.31
2022-08-26T07:14:19.359Z,100656.70
2022-08-26T07:16:50.122Z,100655.47
2022-08-26T07:19:30.481Z,100655.05
2022-08-26T07:22:02.288Z,100656.39
2022-08-26T07:24:31.042Z,100659.08
2022-08-26T07:27:02.846Z,100659.44
2022-08-26T07:29:30.904Z,100664.24
2022-08-26T07:31:58.356Z,100666.45
2022-08-26T07:34:25.584Z,100662.84
2022-08-26T07:36:53.602Z,100666.91
2022-08-26T07:39:22.063Z,100667.61
2022-08-26T07:41:48.653Z,100671.77
2022-08-26T07:44:16.733Z,100671.46
2022-08-26T07:46:44.358Z,100671.34
2022-08-26T07:49:20.069Z,100676.83
2022-08-26T07:51:47.084Z,100684.26
2022-08-26T07:54:14.053Z,100691.14
2022-08-26T07:56:41.537Z,100692.10
2022-08-26T07:59:13.520Z,100697.94
2022-08-26T08:01:41.501Z,100693.28
2022-08-26T08:04:14.040Z,100696.87
2022-08-26T08:06:41.240Z,100694.88
2022-08-26T08:09:12.229Z,100692.36
2022-08-26T08:11:42.305Z,100691.80
2022-08-26T08:14:11.825Z,100692.14
2022-08-26T08:16:45.922Z,100690.48
2022-08-26T08:19:13.756Z,100694.89
2022-08-26T08:21:41.954Z,100701.86
2022-08-26T08:24:12.365Z,100708.79
2022-08-26T08:26:42.807Z,100707.90
2022-08-26T08:29:09.889Z,100708.90
2022-08-26T08:34:25.811Z,100700.92
2022-08-26T08:36:53.666Z,100700.07
2022-08-26T08:39:22.210Z,100693.09
2022-08-26T08:42:05.916Z,100691.95
2022-08-26T08:44:34.486Z,100692.63
2022-08-26T08:47:14.415Z,100694.48
2022-08-26T08:49:44.544Z,100689.05
2022-08-26T08:52:22.088Z,100690.76
2022-08-26T08:54:48.968Z,100688.45
2022-08-26T08:57:26.006Z,100691.05
2022-08-26T09:00:08.992Z,100686.59
2022-08-26T09:02:47.773Z,100685.34
2022-08-26T09:05:23.094Z,100686.14
2022-08-26T09:07:56.064Z,100689.53
2022-08-26T09:10:25.850Z,100688.20
2022-08-26T09:12:53.081Z,100682.20
2022-08-26T09:15:33.442Z,100676.58
2022-08-26T09:18:19.504Z,100683.60
2022-08-26T09:21:06.407Z,100684.59
2022-08-26T09:23:37.623Z,100684.59
2022-08-26T09:26:18.496Z,100683.08
2022-08-26T09:29:03.664Z,100687.42
2022-08-26T09:31:34.099Z,100683.63
2022-08-26T09:34:17.454Z,100676.96
2022-08-26T09:36:55.886Z,100675.71
2022-08-26T09:39:28.392Z,100673.80
2022-08-26T09:42:12.825Z,100668.99
2022-08-26T09:45:00.247Z,100664.73
2022-08-26T09:47:37.092Z,100657.98
2022-08-26T09:50:22.950Z,100653.83
2022-08-26T09:53:25.336Z,100654.23
2022-08-26T09:56:25.773Z,100649.23
2022-08-26T09:58:55.588Z,100647.97
2022-08-26T10:01:32.153Z,100646.67
2022-08-26T10:04:13.924Z,100647.23
2022-08-26T10:07:00.758Z,100642.91
2022-08-26T10:09:31.154Z,100639.28
2022-08-26T10:12:02.674Z,100630.63
2022-08-26T10:14:48.106Z,100631.90
2022-08-26T10:17:29.159Z,100623.54
2022-08-26T10:20:06.591Z,100619.95
2022-08-26T10:23:09.709Z,100615.16
2022-08-26T10:25:53.685Z,100614.50
2022-08-26T10:29:07.940Z,100614.89
2022-08-26T10:31:40.958Z,100609.73
2022-08-26T10:34:12.338Z,100608.05
2022-08-26T10:37:13.435Z,100602.38
2022-08-26T10:39:57.139Z,100597.27
2022-08-26T10:42:38.643Z,100593.19
2022-08-26T10:45:15.273Z,100587.33
2022-08-26T10:48:05.263Z,100585.50
2022-08-26T10:50:35.071Z,100582.56
2022-08-26T10:53:32.521Z,100585.42
2022-08-26T10:57:09.603Z,100584.64
2022-08-26T10:59:39.452Z,100581.98
2022-08-26T11:02:15.004Z,100581.20
2022-08-26T11:04:48.707Z,100582.01
2022-08-26T11:07:36.763Z,100580.97
2022-08-26T11:10:06.823Z,100580.00
2022-08-26T11:12:36.375Z,100580.68
2022-08-26T11:15:24.564Z,100577.99
2022-08-26T11:17:51.852Z,100573.73
2022-08-26T11:20:27.757Z,100570.64
2022-08-26T11:22:56.086Z,100566.23
2022-08-26T11:25:29.929Z,100561.85
2022-08-26T11:28:00.688Z,100558.81
2022-08-26T11:30:58.077Z,100560.65
2022-08-26T11:33:47.806Z,100558.62
2022-08-26T11:36:59.987Z,100552.68
2022-08-26T11:39:53.867Z,100547.98
2022-08-26T11:42:46.416Z,100542.28
2022-08-26T11:45:28.417Z,100536.39
2022-08-26T11:47:55.220Z,100526.77
2022-08-26T11:50:26.217Z,100525.81
2022-08-26T11:52:55.793Z,100524.12
2022-08-26T11:55:24.138Z,100520.60
2022-08-26T11:57:57.545Z,100511.70
2022-08-26T12:00:33.749Z,100503.83
2022-08-26T12:03:07.559Z,100493.58
2022-08-26T12:05:44.899Z,100490.89
2022-08-26T12:08:16.515Z,100494.71
2022-08-26T12:10:44.314Z,100492.29
2022-08-26T12:13:22.342Z,100488.78
2022-08-26T12:15:57.910Z,100483.33
2022-08-26T12:18:36.369Z,100483.34
2022-08-26T12:21:16.165Z,100481.74
2022-08-26T12:23:47.759Z,100477.49
2022-08-26T12:26:29.496Z,100473.98
2022-08-26T12:29:20.281Z,100470.90
2022-08-26T12:31:53.383Z,100470.70
2022-08-26T12:34:20.186Z,100469.38
2022-08-26T12:36:55.019Z,100472.43
2022-08-26T12:39:34.050Z,100476.91
2022-08-26T12:42:03.220Z,100469.46
2022-08-26T12:44:42.070Z,100466.01
2022-08-26T12:47:42.515Z,100471.80
2022-08-26T12:50:15.161Z,100469.04
2022-08-26T12:53:10.851Z,100471.10
2022-08-26T12:55:54.090Z,100469.61
2022-08-26T12:58:28.706Z,100461.67
2022-08-26T13:01:08.374Z,100462.63
2022-08-26T13:03:35.584Z,100462.31
2022-08-26T13:06:15.783Z,100455.96
2022-08-26T13:08:51.508Z,100455.33
2022-08-26T13:11:40.674Z,100447.20
2022-08-26T13:14:23.851Z,100444.34
2022-08-26T13:16:51.778Z,100442.39
2022-08-26T13:19:22.035Z,100438.73
2022-08-26T13:22:07.827Z,100425.05
2022-08-26T13:24:38.414Z,100420.59
2022-08-26T13:27:06.998Z,100416.55
2022-08-26T13:29:34.091Z,100420.36
2022-08-26T13:32:01.802Z,100428.13
2022-08-26T13:34:29.919Z,100431.11
2022-08-26T13:36:58.243Z,100429.73
2022-08-26T13:39:25.853Z,100436.98
2022-08-26T13:41:53.353Z,100444.81
2022-08-26T13:44:20.086Z,100449.58
2022-08-26T13:46:47.238Z,100460.02
2022-08-26T13:49:14.368Z,100461.59
2022-08-26T13:51:42.108Z,100461.52
2022-08-26T13:54:09.092Z,100457.77
2022-08-26T13:56:36.358Z,100457.66
2022-08-26T13:59:06.401Z,100450.48
2022-08-26T14:01:33.772Z,100451.95
2022-08-26T14:04:00.763Z,100449.84
2022-08-26T14:06:27.712Z,100449.45
2022-08-26T14:08:54.865Z,100444.13
2022-08-26T14:11:23.081Z,100448.52
2022-08-26T14:13:50.246Z,100444.50
2022-08-26T14:16:27.420Z,100436.27
2022-08-26T14:18:54.715Z,100434.19
2022-08-26T14:21:21.480Z,100431.56
2022-08-26T14:23:48.704Z,100428.44
2022-08-26T14:26:19.028Z,100434.01
2022-08-26T14:28:58.032Z,100440.23
2022-08-26T14:31:26.910Z,100445.32
2022-08-26T14:33:56.681Z,100443.52
2022-08-26T14:36:29.448Z,100434.77
2022-08-26T14:39:00.926Z,100433.88
2022-08-26T14:41:29.047Z,100432.11
2022-08-26T14:44:00.252Z,100430.76
2022-08-26T14:46:30.181Z,100425.24
2022-08-26T14:49:03.531Z,100427.59
2022-08-26T14:51:32.191Z,100430.68
2022-08-26T14:54:14.536Z,100432.87
2022-08-26T14:56:58.617Z,100429.54
2022-08-26T14:59:28.588Z,100423.25
2022-08-26T15:01:56.569Z,100418.59
2022-08-26T15:04:24.594Z,100419.27
2022-08-26T15:06:53.732Z,100418.88
2022-08-26T15:09:21.540Z,100428.31
2022-08-26T15:11:48.583Z,100423.06
2022-08-26T15:14:19.835Z,100420.98
2022-08-26T15:16:52.573Z,100422.80
2022-08-26T15:19:20.527Z,100418.76
2022-08-26T15:21:48.433Z,100418.77
2022-08-26T15:24:17.916Z,100414.02
2022-08-26T15:26:45.824Z,100410.98
2022-08-26T15:29:13.759Z,100409.23
2022-08-26T15:31:40.851Z,100411.62
2022-08-26T15:34:13.326Z,100414.98
2022-08-26T15:36:44.890Z,100421.90
2022-08-26T15:39:13.206Z,100425.98
2022-08-26T15:41:41.345Z,100422.71
2022-08-26T15:44:08.544Z,100427.23
2022-08-26T15:46:37.526Z,100426.73
2022-08-26T15:49:06.709Z,100424.63
2022-08-26T15:51:45.735Z,100424.80
2022-08-26T15:54:13.709Z,100422.67
2022-08-26T15:56:40.559Z,100422.05
2022-08-26T15:59:08.124Z,100414.01
2022-08-26T16:01:35.979Z,100410.63
2022-08-26T16:04:04.135Z,100409.15
2022-08-26T16:06:33.201Z,100406.59
2022-08-26T16:09:00.678Z,100410.63
2022-08-26T16:11:28.483Z,100417.20
2022-08-26T16:13:55.342Z,100423.31
2022-08-26T16:16:22.614Z,100434.98
2022-08-26T16:19:25.047Z,100440.71
2022-08-26T16:21:52.087Z,100444.09
2022-08-26T16:24:28.452Z,100456.66
2022-08-26T16:26:56.895Z,100459.49
2022-08-26T16:29:24.530Z,100462.92
2022-08-26T16:31:53.326Z,100468.50
2022-08-26T16:34:20.772Z,100474.17
2022-08-26T16:36:47.651Z,100476.16
2022-08-26T16:39:14.621Z,100476.60
2022-08-26T16:41:42.178Z,100482.40
2022-08-26T16:44:08.811Z,100485.84
2022-08-26T16:46:36.097Z,100493.05
2022-08-26T16:49:06.140Z,100502.55
2022-08-26T16:51:38.180Z,100497.45
2022-08-26T16:54:06.970Z,100498.82
2022-08-26T16:56:34.717Z,100495.16
2022-08-26T16:59:05.062Z,100487.48
2022-08-26T17:01:32.196Z,100480.36
2022-08-26T17:03:59.240Z,100481.84
2022-08-26T17:06:25.886Z,100479.98
2022-08-26T17:08:53.137Z,100479.09
2022-08-26T17:11:19.866Z,100474.16
2022-08-26T17:13:46.538Z,100475.50
2022-08-26T17:16:14.667Z,100478.58
2022-08-26T17:18:42.111Z,100475.53
2022-08-26T17:21:12.571Z,100473.36
2022-08-26T17:23:41.119Z,100472.03
2022-08-26T17:26:09.110Z,100482.64
2022-08-26T17:28:37.903Z,100494.25
2022-08-26T17:31:08.512Z,100493.13
2022-08-26T17:33:38.613Z,100486.05
2022-08-26T17:36:09.919Z,100485.78
2022-08-26T17:38:37.850Z,100496.77
2022-08-26T17:41:13.268Z,100500.90
2022-08-26T17:43:40.805Z,100515.23
2022-08-26T17:46:09.769Z,100527.71
2022-08-26T17:48:38.159Z,100535.17
2022-08-26T17:51:14.274Z,100545.68
2022-08-26T17:53:41.775Z,100553.42
2022-08-26T17:56:14.223Z,100552.21
2022-08-26T17:58:50.923Z,100552.31
2022-08-26T18:01:28.555Z,100554.33
2022-08-26T18:04:00.235Z,100553.02
2022-08-26T18:06:27.889Z,100551.34
2022-08-26T18:08:54.581Z,100556.73
2022-08-26T18:11:23.198Z,100562.08
2022-08-26T18:13:52.700Z,100571.64
2022-08-26T18:16:20.569Z,100573.27
2022-08-26T18:18:49.063Z,100576.38
2022-08-26T18:21:18.929Z,100578.83
2022-08-26T18:23:47.221Z,100582.89
2022-08-26T18:26:35.504Z,100585.20
2022-08-26T18:29:03.282Z,100587.27
2022-08-26T18:31:32.156Z,100583.36
2022-08-26T18:34:00.726Z,100586.54
2022-08-26T18:36:31.944Z,100579.33
2022-08-26T18:38:59.792Z,100579.98
2022-08-26T18:41:28.810Z,100585.36
2022-08-26T18:44:05.446Z,100603.77
2022-08-26T18:46:32.282Z,100593.52
2022-08-26T18:49:01.854Z,100585.33
2022-08-26T18:51:31.443Z,100579.28
2022-08-26T18:54:00.449Z,100587.09
2022-08-26T18:56:28.042Z,100594.66
2022-08-26T18:58:55.001Z,100598.55
2022-08-26T19:01:26.681Z,100591.73
2022-08-26T19:03:56.162Z,100585.48
2022-08-26T19:06:23.923Z,100587.59
2022-08-26T19:08:50.900Z,100593.06
2022-08-26T19:11:31.468Z,100591.75
2022-08-26T19:14:04.329Z,100591.17
2022-08-26T19:16:34.679Z,100595.70
2022-08-26T19:19:02.111Z,100599.62
2022-08-26T19:21:29.814Z,100600.72
2022-08-26T19:23:58.653Z,100610.95
2022-08-26T19:26:27.333Z,100614.14
2022-08-26T19:28:54.590Z,100610.83
2022-08-26T19:31:22.267Z,100615.64
2022-08-26T19:33:49.768Z,100614.44
2022-08-26T19:36:25.455Z,100618.54
2022-08-26T19:38:53.365Z,100611.91
2022-08-26T19:41:29.027Z,100604.17
2022-08-26T19:44:08.875Z,100615.83
2022-08-26T19:46:36.347Z,100616.30
2022-08-26T19:49:03.817Z,100617.08
2022-08-26T19:51:32.948Z,100619.26
2022-08-26T19:54:01.229Z,100627.04
2022-08-26T19:56:28.732Z,100637.55
2022-08-26T19:58:56.655Z,100639.03
2022-08-26T20:01:24.234Z,100629.92
2022-08-26T20:03:51.507Z,100617.11
2022-08-26T20:06:20.095Z,100610.83
2022-08-26T20:08:47.161Z,100610.51
2022-08-26T20:11:16.351Z,100617.42
2022-08-26T20:13:44.399Z,100620.27
2022-08-26T20:16:12.065Z,100615.92
2022-08-26T20:18:59.408Z,100612.61
2022-08-26T20:21:27.057Z,100611.79
2022-08-26T20:24:00.726Z,100610.81
2022-08-26T20:26:29.354Z,100612.66
2022-08-26T20:28:57.085Z,100606.97
2022-08-26T20:31:24.598Z,100601.02
2022-08-26T20:33:51.789Z,100594.71
2022-08-26T20:36:22.035Z,100596.33
2022-08-26T20:38:50.280Z,100592.77
2022-08-26T20:41:17.794Z,100597.48
2022-08-26T20:43:45.074Z,100605.30
2022-08-26T20:46:17.320Z,100604.73
2022-08-26T20:48:49.300Z,100607.69
2022-08-26T20:51:17.293Z,100615.60
2022-08-26T20:53:44.835Z,100630.71
2022-08-26T20:56:14.216Z,100632.38
2022-08-26T20:58:42.503Z,100631.73
2022-08-26T21:01:18.422Z,100634.57
2022-08-26T21:03:48.144Z,100640.89
2022-08-26T21:06:15.267Z,100640.92
2022-08-26T21:08:43.439Z,100644.22
2022-08-26T21:11:11.745Z,100644.41
2022-08-26T21:14:03.476Z,100645.81
2022-08-26T21:16:31.534Z,100650.77
2022-08-26T21:19:00.476Z,100651.75
2022-08-26T21:21:34.737Z,100651.07
2022-08-26T21:24:03.999Z,100656.52
2022-08-26T21:26:31.085Z,100656.94
2022-08-26T21:28:58.145Z,100662.36
2022-08-26T21:31:25.690Z,100663.20
2022-08-26T21:33:52.984Z,100659.42
2022-08-26T21:36:20.322Z,100661.83
2022-08-26T21:38:47.625Z,100663.89
2022-08-26T21:41:23.607Z,100666.55
2022-08-26T21:43:53.783Z,100670.52
2022-08-26T21:46:23.366Z,100673.36
2022-08-26T21:49:00.114Z,100674.61
2022-08-26T21:51:35.072Z,100669.99
2022-08-26T21:54:06.555Z,100665.56
2022-08-26T21:56:42.079Z,100666.02
2022-08-26T21:59:09.476Z,100665.00
2022-08-26T22:01:37.901Z,100662.29
2022-08-26T22:04:07.012Z,100669.45
2022-08-26T22:06:38.662Z,100667.25
2022-08-26T22:09:05.286Z,100670.52
2022-08-26T22:11:32.231Z,100668.56
2022-08-26T22:13:59.266Z,100670.23
2022-08-26T22:16:28.815Z,100666.85
2022-08-26T22:18:58.430Z,100672.14
2022-08-26T22:21:30.738Z,100673.18
2022-08-26T22:23:58.618Z,100673.67
2022-08-26T22:26:28.753Z,100671.29
2022-08-26T22:28:59.148Z,100668.79
2022-08-26T22:31:37.779Z,100674.45
2022-08-26T22:34:08.682Z,100673.75
2022-08-26T22:36:39.779Z,100675.35
2022-08-26T22:39:11.065Z,100671.43
2022-08-26T22:41:37.660Z,100667.30
2022-08-26T22:44:07.535Z,100668.23
2022-08-26T22:46:36.668Z,100665.48
2022-08-26T22:49:05.021Z,100667.72
2022-08-26T22:51:32.279Z,100666.38
2022-08-26T22:53:59.491Z,100664.33
2022-08-26T22:56:26.696Z,100662.48
2022-08-26T22:58:53.673Z,100669.06
2022-08-26T23:01:20.569Z,100668.15
2022-08-26T23:03:47.601Z,100671.99
2022-08-26T23:06:14.765Z,100669.49
2022-08-26T23:08:41.978Z,100672.75
2022-08-26T23:11:10.113Z,100664.90
2022-08-26T23:13:37.547Z,100665.27
2022-08-26T23:16:09.095Z,100660.61
2022-08-26T23:18:36.102Z,100657.94
2022-08-26T23:21:08.970Z,100654.70
2022-08-26T23:23:37.103Z,100655.77
2022-08-26T23:26:07.707Z,100652.58
2022-08-26T23:28:36.631Z,100650.09
2022-08-26T23:31:06.812Z,100646.69
2022-08-26T23:33:52.223Z,100645.30
2022-08-26T23:36:22.706Z,100641.82
2022-08-26T23:38:53.106Z,100636.81
2022-08-26T23:41:23.434Z,100633.73
2022-08-26T23:43:51.593Z,100639.95
2022-08-26T23:46:19.667Z,100642.42
2022-08-26T23:48:47.174Z,100639.04
2022-08-26T23:51:32.839Z,100640.88
2022-08-26T23:53:59.467Z,100637.46
2022-08-26T23:56:26.726Z,100633.02
2022-08-26T23:58:54.495Z,100631.69
